Time;durP1;ratioP1;P1;durP2;ratioP2;P2;SDS_P1;SDS_P2;PMS_P1;PMS_P2;Temp;Humidity;BMP_temperature;BMP_pressure;BME280_temperature;BME280_humidity;BME280_pressure;Samples;Min_cycle;Max_cycle;Signal;HPM_P1;HPM_P2
2022/09/08 00:01:59;;;;;;;;;1.00;1.00;;;;;19.94;100.00;100672.28;5063359;28;47760;-73
2022/09/08 00:04:25;;;;;;;;;3.00;0.00;;;;;19.95;100.00;100668.66;5070805;28;45430;-74
2022/09/08 00:06:51;;;;;;;;;1.00;1.00;;;;;19.93;100.00;100667.84;5066160;28;45521;-76
2022/09/08 00:09:16;;;;;;;;;1.67;0.00;;;;;19.93;100.00;100673.22;5049196;28;45640;-73
2022/09/08 00:11:42;;;;;;;;;1.67;1.00;;;;;19.95;100.00;100680.25;5044619;28;45487;-74
2022/09/08 00:14:08;;;;;;;;;0.67;0.67;;;;;19.95;100.00;100671.34;5054725;28;45602;-73
2022/09/08 00:16:34;;;;;;;;;1.00;1.00;;;;;19.92;100.00;100669.66;5055101;28;45592;-75
2022/09/08 00:18:59;;;;;;;;;1.67;0.00;;;;;19.89;100.00;100667.06;5050901;28;46402;-73
2022/09/08 00:21:26;;;;;;;;;2.00;0.67;;;;;19.85;100.00;100668.06;5062519;28;45680;-73
2022/09/08 00:23:51;;;;;;;;;1.67;0.33;;;;;19.84;100.00;100671.66;5069911;28;45573;-75
2022/09/08 00:26:19;;;;;;;;;0.67;0.67;;;;;19.79;100.00;100662.88;5060553;28;60671;-73
2022/09/08 00:28:44;;;;;;;;;3.00;1.00;;;;;19.78;100.00;100672.72;5055750;28;46693;-73
2022/09/08 00:31:10;;;;;;;;;0.67;0.67;;;;;19.73;100.00;100657.72;5072687;27;45707;-76
2022/09/08 00:33:35;;;;;;;;;1.67;0.00;;;;;19.73;100.00;100663.06;5055917;28;45625;-74
2022/09/08 00:36:03;;;;;;;;;1.33;0.67;;;;;19.76;100.00;100665.66;5066570;27;52046;-73
2022/09/08 00:38:30;;;;;;;;;2.33;2.00;;;;;19.76;100.00;100668.31;5059920;27;46463;-74
2022/09/08 00:40:56;;;;;;;;;2.67;0.67;;;;;19.80;100.00;100660.16;5068152;28;45467;-75
2022/09/08 00:43:41;;;;;;;;;3.00;1.00;;;;;19.81;100.00;100667.25;5052238;28;45504;-77
2022/09/08 00:46:09;;;;;;;;;1.00;1.00;;;;;19.86;100.00;100664.44;5053964;28;45526;-76
2022/09/08 00:48:59;;;;;;;;;2.67;1.00;;;;;19.85;100.00;100671.63;5062222;28;46185;-76
2022/09/08 00:51:27;;;;;;;;;3.00;1.00;;;;;19.86;100.00;100669.81;5057972;28;45942;-73
2022/09/08 00:53:54;;;;;;;;;1.67;1.67;;;;;19.86;100.00;100668.00;5059723;28;45903;-73
2022/09/08 00:56:21;;;;;;;;;1.00;1.00;;;;;19.88;100.00;100676.91;5047520;28;45664;-73
2022/09/08 00:58:47;;;;;;;;;2.00;2.00;;;;;19.90;100.00;100668.81;5064164;28;45929;-76
2022/09/08 01:01:12;;;;;;;;;0.00;0.00;;;;;19.90;100.00;100671.47;5027737;28;58906;-75
2022/09/08 01:03:39;;;;;;;;;2.00;1.00;;;;;19.92;100.00;100666.06;5044542;28;45870;-75
2022/09/08 01:12:44;;;;;;;;;0.67;0.67;;;;;19.94;100.00;100670.47;5067352;28;45348;-73
2022/09/08 01:15:11;;;;;;;;;1.67;0.67;;;;;19.96;100.00;100673.09;5054959;28;45509;-77
2022/09/08 01:17:37;;;;;;;;;1.67;0.67;;;;;19.96;100.00;100673.97;5060809;28;45648;-74
2022/09/08 01:20:05;;;;;;;;;4.00;1.67;;;;;19.94;100.00;100670.47;5066267;27;47689;-75
2022/09/08 01:22:45;;;;;;;;;0.67;0.67;;;;;19.97;100.00;100681.09;5057917;28;45400;-73
2022/09/08 01:25:41;;;;;;;;;2.00;0.33;;;;;19.97;100.00;100685.56;5043897;28;45467;-73
2022/09/08 01:28:19;;;;;;;;;3.00;1.00;;;;;19.95;100.00;100684.75;5058571;28;45947;-73
2022/09/08 01:30:46;;;;;;;;;0.67;0.67;;;;;19.97;100.00;100693.59;5047648;28;46257;-73
2022/09/08 01:33:13;;;;;;;;;1.00;0.33;;;;;19.98;100.00;100676.63;5047849;28;45446;-75
2022/09/08 01:35:39;;;;;;;;;0.67;0.67;;;;;19.97;100.00;100677.53;5059876;28;48720;-76
2022/09/08 01:38:07;;;;;;;;;1.67;1.67;;;;;19.94;100.00;100680.31;5063570;28;45472;-75
2022/09/08 01:40:33;;;;;;;;;2.00;1.00;;;;;19.95;100.00;100687.44;5047730;28;45454;-74
2022/09/08 01:42:58;;;;;;;;;3.00;0.67;;;;;19.94;100.00;100691.03;5064823;28;45721;-73
2022/09/08 01:45:24;;;;;;;;;2.33;1.00;;;;;19.93;100.00;100702.69;5057257;28;60311;-74
2022/09/08 01:47:50;;;;;;;;;0.67;0.67;;;;;19.90;100.00;100706.31;5048421;28;45532;-72
2022/09/08 01:50:16;;;;;;;;;0.67;0.67;;;;;19.92;100.00;100706.25;5060347;28;46787;-73
2022/09/08 01:52:42;;;;;;;;;2.00;1.00;;;;;19.89;100.00;100707.25;5067092;28;61291;-73
2022/09/08 01:55:07;;;;;;;;;3.00;1.00;;;;;19.91;100.00;100702.72;5059237;28;45852;-73
2022/09/08 01:57:33;;;;;;;;;2.67;0.33;;;;;19.90;100.00;100703.63;5059421;28;45562;-73
2022/09/08 01:59:58;;;;;;;;;5.00;0.67;;;;;19.88;100.00;100709.06;5065942;28;46505;-73
2022/09/08 02:02:23;;;;;;;;;1.00;1.00;;;;;19.89;100.00;100707.25;5057127;28;45590;-73
2022/09/08 02:04:49;;;;;;;;;1.67;0.00;;;;;19.85;100.00;100703.78;5055692;28;58716;-74
2022/09/08 02:07:14;;;;;;;;;0.67;0.67;;;;;19.88;100.00;100714.41;5064523;28;45850;-74
2022/09/08 02:09:39;;;;;;;;;2.67;1.00;;;;;19.85;100.00;100706.44;5066948;28;55580;-75
2022/09/08 02:12:05;;;;;;;;;2.00;1.00;;;;;19.87;100.00;100706.44;5066861;28;52746;-73
2022/09/08 02:14:30;;;;;;;;;1.00;1.00;;;;;19.86;100.00;100700.16;5055683;28;45833;-76
2022/09/08 02:16:56;;;;;;;;;2.33;1.00;;;;;19.89;100.00;100707.25;5062239;28;56921;-76
2022/09/08 02:19:21;;;;;;;;;2.00;1.00;;;;;19.88;100.00;100708.19;5062724;27;46042;-72
2022/09/08 02:21:46;;;;;;;;;1.00;1.00;;;;;19.87;100.00;100703.75;5063431;28;63330;-76
2022/09/08 02:24:12;;;;;;;;;0.33;0.33;;;;;19.82;100.00;100697.66;5062267;28;62314;-73
2022/09/08 02:26:39;;;;;;;;;2.00;1.00;;;;;19.77;100.00;100697.78;5062945;27;53693;-73
2022/09/08 02:29:08;;;;;;;;;1.00;1.00;;;;;19.71;100.00;100692.59;5064959;28;45850;-74
2022/09/08 02:31:34;;;;;;;;;0.67;0.67;;;;;19.65;100.00;100689.19;5054575;28;45492;-73
2022/09/08 02:33:59;;;;;;;;;1.67;1.00;;;;;19.60;100.00;100684.88;5072083;28;45996;-73
2022/09/08 02:36:25;;;;;;;;;2.67;0.33;;;;;19.58;100.00;100686.66;5061581;28;45394;-76
2022/09/08 02:38:55;;;;;;;;;4.00;1.00;;;;;19.54;100.00;100681.44;5071238;28;46658;-73
2022/09/08 02:41:25;;;;;;;;;0.00;0.00;;;;;19.51;100.00;100686.91;5070860;28;45944;-76
2022/09/08 02:43:50;;;;;;;;;2.00;0.00;;;;;19.46;100.00;100678.09;5062491;28;45481;-74
2022/09/08 02:46:16;;;;;;;;;3.00;0.33;;;;;19.43;100.00;100678.19;5067413;28;45354;-76
2022/09/08 02:48:41;;;;;;;;;0.67;0.67;;;;;19.41;100.00;100675.56;5065564;27;46780;-72
2022/09/08 02:51:08;;;;;;;;;4.00;2.33;;;;;19.37;100.00;100668.53;5071856;27;60176;-73
2022/09/08 02:53:35;;;;;;;;;1.67;1.00;;;;;19.34;100.00;100668.63;5067750;28;45526;-74
2022/09/08 02:56:01;;;;;;;;;0.33;0.33;;;;;19.32;100.00;100665.97;5060369;28;45549;-73
2022/09/08 02:58:26;;;;;;;;;1.00;1.00;;;;;19.33;100.00;100667.75;5062199;27;45706;-73
2022/09/08 03:00:52;;;;;;;;;2.33;1.00;;;;;19.35;100.00;100673.06;5055182;28;46405;-77
2022/09/08 03:03:18;;;;;;;;;0.33;0.33;;;;;19.32;100.00;100662.41;5051136;28;45623;-74
2022/09/08 03:05:43;;;;;;;;;0.33;0.33;;;;;19.34;100.00;100660.59;5072974;27;45457;-73
2022/09/08 03:08:09;;;;;;;;;0.67;0.67;;;;;19.31;100.00;100661.53;5059329;28;45507;-73
2022/09/08 03:10:35;;;;;;;;;2.00;0.67;;;;;19.29;100.00;100655.34;5044493;28;45449;-73
2022/09/08 03:13:01;;;;;;;;;2.67;2.67;;;;;19.27;100.00;100653.63;5053408;28;45486;-74
2022/09/08 03:15:28;;;;;;;;;2.00;0.67;;;;;19.23;100.00;100647.50;5059141;28;55235;-73
2022/09/08 03:17:53;;;;;;;;;3.67;0.67;;;;;19.23;100.00;100654.63;5058788;28;46503;-74
2022/09/08 03:20:20;;;;;;;;;0.67;0.67;;;;;19.20;100.00;100644.03;5066677;27;63949;-73
2022/09/08 03:22:45;;;;;;;;;0.67;0.67;;;;;19.19;100.00;100648.50;5054859;28;45613;-73
2022/09/08 03:25:11;;;;;;;;;1.33;1.33;;;;;19.20;100.00;100652.94;5060565;28;45555;-76
2022/09/08 03:27:36;;;;;;;;;4.00;1.00;;;;;19.18;100.00;100644.06;5060020;28;68884;-73
2022/09/08 03:30:06;;;;;;;;;3.33;2.33;;;;;19.21;100.00;100659.16;5068169;27;45633;-72
2022/09/08 03:32:33;;;;;;;;;2.33;1.33;;;;;19.20;100.00;100654.72;5066832;28;45597;-73
2022/09/08 03:34:59;;;;;;;;;1.33;1.33;;;;;19.17;100.00;100639.63;5068973;28;45446;-73
2022/09/08 03:37:24;;;;;;;;;2.67;1.00;;;;;19.17;100.00;100636.06;5062845;28;45751;-73
2022/09/08 03:39:50;;;;;;;;;4.33;1.33;;;;;19.20;100.00;100650.25;5064318;28;64636;-74
2022/09/08 03:42:17;;;;;;;;;1.67;1.00;;;;;19.20;100.00;100639.53;5060676;27;46432;-75
2022/09/08 03:44:43;;;;;;;;;3.67;2.33;;;;;19.21;100.00;100645.78;5054703;28;45632;-75
2022/09/08 03:47:08;;;;;;;;;1.67;0.33;;;;;19.21;100.00;100646.66;5037145;28;45701;-73
2022/09/08 03:49:34;;;;;;;;;3.00;1.33;;;;;19.24;100.00;100645.69;5061839;28;45633;-74
2022/09/08 03:52:00;;;;;;;;;1.33;0.00;;;;;19.23;100.00;100650.19;5059294;28;45794;-73
2022/09/08 03:57:11;;;;;;;;;0.67;0.67;;;;;19.23;100.00;100644.81;5072980;28;45482;-75
2022/09/08 03:59:36;;;;;;;;;0.33;0.33;;;;;19.23;100.00;100644.81;5056221;28;46174;-73
2022/09/08 04:02:03;;;;;;;;;1.33;1.33;;;;;19.27;100.00;100648.28;5072982;27;45501;-77
2022/09/08 04:04:30;;;;;;;;;2.67;0.67;;;;;19.30;100.00;100640.16;5063607;28;45419;-73
2022/09/08 04:06:56;;;;;;;;;3.33;1.33;;;;;19.28;100.00;100642.91;5058689;28;46452;-72
2022/09/08 04:09:21;;;;;;;;;2.33;1.33;;;;;19.33;100.00;100650.78;5058293;28;46109;-73
2022/09/08 04:11:48;;;;;;;;;1.00;1.00;;;;;19.35;100.00;100655.19;5065065;28;54114;-74
2022/09/08 04:14:13;;;;;;;;;1.67;1.67;;;;;19.35;100.00;100636.44;5058867;28;45407;-73
2022/09/08 04:16:40;;;;;;;;;2.67;1.33;;;;;19.35;100.00;100639.13;5058390;28;45488;-74
2022/09/08 04:19:06;;;;;;;;;1.33;1.33;;;;;19.42;100.00;100646.97;5063810;27;45568;-74
2022/09/08 04:21:31;;;;;;;;;2.00;1.33;;;;;19.43;100.00;100636.22;5060951;28;45602;-73
2022/09/08 04:23:59;;;;;;;;;2.33;1.33;;;;;19.44;100.00;100632.63;5062730;28;45417;-73
2022/09/08 04:26:24;;;;;;;;;1.33;1.33;;;;;19.45;100.00;100641.53;5059778;28;47807;-73
2022/09/08 04:28:50;;;;;;;;;1.67;0.67;;;;;19.45;100.00;100629.03;5066197;28;60972;-76
2022/09/08 04:31:16;;;;;;;;;2.00;1.33;;;;;19.46;100.00;100641.50;5060550;27;45899;-74
2022/09/08 04:33:41;;;;;;;;;2.33;1.00;;;;;19.40;100.00;100633.63;5063144;28;45697;-72
2022/09/08 04:36:08;;;;;;;;;3.67;1.67;;;;;19.42;100.00;100630.91;5066256;28;45755;-72
2022/09/08 04:38:33;;;;;;;;;1.33;0.67;;;;;19.37;100.00;100631.91;5058292;28;45674;-76
2022/09/08 04:41:04;;;;;;;;;3.67;2.33;;;;;19.33;100.00;100630.25;5052485;28;45662;-73
2022/09/08 04:43:31;;;;;;;;;2.00;2.00;;;;;19.30;100.00;100630.34;5055472;28;45793;-75
2022/09/08 04:46:00;;;;;;;;;3.67;2.00;;;;;19.28;100.00;100631.28;5066640;28;47289;-75
2022/09/08 04:48:26;;;;;;;;;6.67;1.67;;;;;19.29;100.00;100628.59;5065313;27;45487;-74
2022/09/08 04:50:52;;;;;;;;;5.33;2.00;;;;;19.32;100.00;100641.00;5040750;28;45770;-73
2022/09/08 04:53:18;;;;;;;;;4.00;1.33;;;;;19.33;100.00;100638.28;5068242;28;45844;-73
2022/09/08 04:55:43;;;;;;;;;2.33;0.67;;;;;19.36;100.00;100634.63;5066558;28;46701;-73
2022/09/08 04:58:08;;;;;;;;;3.00;1.33;;;;;19.40;100.00;100630.97;5063413;28;45463;-73
2022/09/08 05:00:34;;;;;;;;;2.67;2.33;;;;;19.43;100.00;100643.38;5043520;28;55905;-73
2022/09/08 05:02:59;;;;;;;;;4.67;3.00;;;;;19.43;100.00;100636.22;5060606;28;45525;-75
2022/09/08 05:05:24;;;;;;;;;6.00;3.00;;;;;19.45;100.00;100631.72;5057194;28;49998;-74
2022/09/08 05:07:50;;;;;;;;;4.67;2.00;;;;;19.49;100.00;100638.72;5065033;28;63215;-74
2022/09/08 05:10:15;;;;;;;;;4.67;2.67;;;;;19.49;100.00;100637.84;5056518;28;45877;-74
2022/09/08 05:12:40;;;;;;;;;2.67;2.67;;;;;19.52;100.00;100640.44;5067545;28;45417;-74
2022/09/08 05:15:07;;;;;;;;;4.00;2.67;;;;;19.52;100.00;100645.78;5057786;28;65886;-76
2022/09/08 05:17:32;;;;;;;;;3.33;3.33;;;;;19.55;100.00;100643.03;5058306;28;45599;-75
2022/09/08 05:19:57;;;;;;;;;3.33;2.00;;;;;19.56;100.00;100645.66;5066709;27;45466;-72
2022/09/08 05:22:23;;;;;;;;;2.33;2.33;;;;;19.52;100.00;100640.44;5068132;28;45438;-73
2022/09/08 05:24:48;;;;;;;;;4.67;3.33;;;;;19.45;100.00;100645.09;5069078;27;46566;-73
2022/09/08 05:27:14;;;;;;;;;4.00;2.00;;;;;19.34;100.00;100641.84;5070301;27;45390;-73
2022/09/08 05:29:39;;;;;;;;;2.33;1.33;;;;;19.32;100.00;100643.66;5080091;27;45455;-72
2022/09/08 05:32:04;;;;;;;;;3.33;2.33;;;;;19.23;100.00;100639.47;5065335;27;59426;-72
2022/09/08 05:34:30;;;;;;;;;3.00;1.33;;;;;19.15;100.00;100644.16;5060848;28;45550;-72
2022/09/08 05:36:55;;;;;;;;;1.67;1.67;;;;;19.05;100.00;100638.16;5060536;27;45790;-71
2022/09/08 05:39:20;;;;;;;;;3.67;1.67;;;;;18.98;100.00;100643.72;5063174;28;45615;-71
2022/09/08 05:41:46;;;;;;;;;3.67;2.33;;;;;18.91;100.00;100644.78;5058870;28;48438;-72
2022/09/08 05:44:14;;;;;;;;;4.67;3.00;;;;;18.83;100.00;100651.22;5036524;28;47599;-71
2022/09/08 05:46:39;;;;;;;;;5.00;2.00;;;;;18.78;100.00;100639.75;5057846;28;45486;-72
2022/09/08 05:49:04;;;;;;;;;2.00;2.00;;;;;18.77;100.00;100648.72;5064987;28;45573;-70
2022/09/08 05:51:32;;;;;;;;;6.33;1.33;;;;;18.75;100.00;100644.31;5061378;27;59684;-71
2022/09/08 05:53:58;;;;;;;;;3.67;2.33;;;;;18.72;100.00;100642.59;5065908;27;46433;-71
2022/09/08 05:56:24;;;;;;;;;4.67;2.00;;;;;18.69;100.00;100644.47;5082033;27;45475;-71
2022/09/08 05:58:51;;;;;;;;;2.67;2.33;;;;;18.67;100.00;100649.84;5076561;27;55424;-71
2022/09/08 06:01:17;;;;;;;;;4.67;3.00;;;;;18.68;100.00;100656.09;5057624;28;45659;-71
2022/09/08 06:03:42;;;;;;;;;3.00;1.33;;;;;18.64;100.00;100655.25;5065732;28;46335;-71
2022/09/08 06:06:09;;;;;;;;;4.00;3.00;;;;;18.66;100.00;100653.44;5062990;28;66016;-70
2022/09/08 06:08:38;;;;;;;;;6.67;1.33;;;;;18.64;100.00;100657.91;5078079;28;45657;-71
2022/09/08 06:11:04;;;;;;;;;4.67;3.00;;;;;18.70;100.00;100663.19;5050897;28;45640;-71
2022/09/08 06:13:30;;;;;;;;;7.33;3.33;;;;;18.76;100.00;100655.00;5069921;27;46695;-69
2022/09/08 06:16:04;;;;;;;;;3.00;3.00;;;;;18.81;100.00;100657.56;5059756;28;45459;-70
2022/09/08 06:18:35;;;;;;;;;4.00;4.00;;;;;18.89;100.00;100649.31;5069215;27;45555;-71
2022/09/08 06:21:08;;;;;;;;;4.00;2.33;;;;;18.92;100.00;100652.81;5074127;27;45638;-71
2022/09/08 06:23:33;;;;;;;;;9.33;3.33;;;;;18.95;100.00;100649.16;5073430;28;47719;-72
2022/09/08 06:26:09;;;;;;;;;2.33;2.33;;;;;18.99;100.00;100654.38;5055002;28;45557;-71
2022/09/08 06:28:45;;;;;;;;;5.33;4.00;;;;;19.05;100.00;100646.19;5075649;27;45655;-72
2022/09/08 06:31:11;;;;;;;;;3.00;3.00;;;;;19.15;100.00;100645.94;5049662;28;46176;-72
2022/09/08 06:33:40;;;;;;;;;2.33;2.33;;;;;19.22;100.00;100644.84;5041404;28;45722;-71
2022/09/08 06:36:25;;;;;;;;;5.33;3.00;;;;;19.28;100.00;100650.94;5039988;28;45584;-71
2022/09/08 06:38:57;;;;;;;;;3.00;2.33;;;;;19.36;100.00;100651.59;5053423;28;45410;-71
2022/09/08 06:41:40;;;;;;;;;3.00;2.33;;;;;19.45;100.00;100649.56;5065462;28;45406;-72
2022/09/08 06:44:16;;;;;;;;;3.67;1.00;;;;;19.54;100.00;100651.97;5071262;27;45584;-70
2022/09/08 06:46:42;;;;;;;;;6.00;3.00;;;;;19.58;100.00;100641.13;5039282;28;46006;-71
2022/09/08 06:49:09;;;;;;;;;6.00;3.00;;;;;19.62;100.00;100629.44;5046890;28;45599;-71
2022/09/08 06:51:43;;;;;;;;;6.67;3.00;;;;;19.73;100.00;100636.28;5070674;28;47157;-72
2022/09/08 06:54:08;;;;;;;;;2.67;2.67;;;;;19.76;100.00;100644.22;5060695;28;46613;-71
2022/09/08 06:56:49;;;;;;;;;4.33;2.67;;;;;19.79;100.00;100647.69;5066189;28;45558;-72
2022/09/08 06:59:19;;;;;;;;;5.33;4.00;;;;;19.82;100.00;100649.41;5047034;28;45567;-71
2022/09/08 07:02:07;;;;;;;;;6.00;3.00;;;;;19.86;100.00;100651.06;5063047;27;45482;-71
2022/09/08 07:04:38;;;;;;;;;7.00;3.67;;;;;19.86;100.00;100649.25;5030157;28;46226;-71
2022/09/08 07:07:09;;;;;;;;;4.67;3.00;;;;;19.86;100.00;100653.72;5057026;28;46765;-71
2022/09/08 07:09:37;;;;;;;;;6.67;4.00;;;;;19.91;100.00;100648.25;5063528;28;45836;-71
2022/09/08 07:12:24;;;;;;;;;4.67;3.00;;;;;19.98;100.00;100653.38;5066400;28;45471;-71
2022/09/08 07:14:57;;;;;;;;;2.67;2.67;;;;;20.05;100.00;100654.06;5062993;28;46510;-71
2022/09/08 07:17:41;;;;;;;;;4.00;3.67;;;;;20.10;100.00;100654.81;5058342;28;46629;-71
2022/09/08 07:20:10;;;;;;;;;3.00;3.00;;;;;20.17;100.00;100650.13;5071715;28;45743;-71
2022/09/08 07:22:57;;;;;;;;;5.00;3.00;;;;;20.22;100.00;100653.53;5066914;28;45510;-72
2022/09/08 07:25:32;;;;;;;;;5.00;5.00;;;;;20.25;100.00;100654.31;5064985;28;46409;-71
2022/09/08 07:28:02;;;;;;;;;6.33;3.33;;;;;20.29;100.00;100642.56;5054692;28;45560;-71
2022/09/08 07:30:27;;;;;;;;;5.33;3.00;;;;;20.34;100.00;100645.97;5049674;28;45566;-72
2022/09/08 07:33:17;;;;;;;;;5.67;3.00;;;;;20.43;100.00;100644.81;5065820;28;45462;-70
2022/09/08 07:36:01;;;;;;;;;5.33;2.00;;;;;20.50;100.00;100646.38;5040646;28;46626;-70
2022/09/08 07:38:56;;;;;;;;;9.33;5.00;;;;;20.59;100.00;100634.47;5065019;27;45580;-71
2022/09/08 07:42:00;;;;;;;;;7.33;2.00;;;;;20.66;100.00;100642.25;5061236;28;45448;-72
2022/09/08 07:44:25;;;;;;;;;3.00;2.67;;;;;20.69;100.00;100638.59;5007458;28;45790;-71
2022/09/08 07:46:51;;;;;;;;;7.67;2.33;;;;;20.69;100.00;100643.97;5055720;28;61913;-71
2022/09/08 07:49:43;;;;;;;;;5.00;4.00;;;;;20.67;100.00;100635.97;5049087;28;45575;-71
2022/09/08 07:52:33;;;;;;;;;6.00;3.00;;;;;20.79;100.00;100647.22;5062230;28;45454;-72
2022/09/08 07:55:06;;;;;;;;;5.67;4.00;;;;;20.82;100.00;100647.09;5071098;28;45442;-71
2022/09/08 07:57:40;;;;;;;;;10.00;4.00;;;;;20.84;100.00;100648.81;5060922;28;46486;-70
2022/09/08 08:00:11;;;;;;;;;5.33;4.33;;;;;20.87;100.00;100653.19;5065180;28;45445;-71
2022/09/08 08:03:08;;;;;;;;;11.33;6.00;;;;;20.90;100.00;100656.66;5069801;28;45502;-72
2022/09/08 08:05:50;;;;;;;;;5.00;4.00;;;;;20.88;100.00;100639.75;5066915;28;45419;-71
2022/09/08 08:08:15;;;;;;;;;4.67;4.67;;;;;20.95;100.00;100655.63;5049005;28;45621;-71
2022/09/08 08:10:46;;;;;;;;;4.33;4.00;;;;;20.96;100.00;100657.38;5064086;28;45435;-71
2022/09/08 08:13:44;;;;;;;;;3.00;3.00;;;;;20.93;100.00;100645.81;5042501;28;45320;-72
2022/09/08 08:16:13;;;;;;;;;4.33;3.00;;;;;20.92;100.00;100659.28;5052257;28;45763;-72
2022/09/08 08:18:50;;;;;;;;;6.33;2.67;;;;;20.87;100.00;100656.75;5069363;28;45533;-72
2022/09/08 08:21:22;;;;;;;;;3.00;3.00;;;;;20.88;100.00;100661.22;5055023;28;45458;-70
2022/09/08 08:23:55;;;;;;;;;6.33;3.00;;;;;20.89;100.00;100656.72;5055638;28;45533;-71
2022/09/08 08:26:45;;;;;;;;;4.67;3.00;;;;;20.94;100.00;100662.81;5061684;28;45849;-71
2022/09/08 08:29:35;;;;;;;;;5.00;2.33;;;;;20.97;100.00;100661.81;5056952;28;46752;-71
2022/09/08 08:32:07;;;;;;;;;7.00;3.67;;;;;20.99;100.00;100658.16;5070139;27;45467;-70
2022/09/08 08:34:42;;;;;;;;;4.67;3.00;;;;;20.98;100.00;100663.56;5072651;28;45968;-71
2022/09/08 08:37:17;;;;;;;;;4.00;2.33;;;;;20.92;100.00;100660.16;5052988;28;45560;-71
2022/09/08 08:39:45;;;;;;;;;4.67;2.00;;;;;20.86;100.00;100663.06;5045315;28;47764;-72
2022/09/08 08:42:37;;;;;;;;;5.00;3.00;;;;;20.82;100.00;100649.78;5044376;28;45459;-72
2022/09/08 08:45:08;;;;;;;;;4.00;4.00;;;;;20.87;100.00;100658.56;5045275;28;45800;-71
2022/09/08 08:47:45;;;;;;;;;5.67;4.00;;;;;20.82;100.00;100664.06;5056277;28;45381;-72
2022/09/08 08:50:17;;;;;;;;;3.00;3.00;;;;;20.82;100.00;100666.75;5049796;28;46529;-71
2022/09/08 08:52:42;;;;;;;;;5.67;3.00;;;;;20.81;100.00;100666.81;5043736;28;45407;-72
2022/09/08 08:55:37;;;;;;;;;4.67;2.00;;;;;20.78;100.00;100667.81;5064602;28;45647;-71
2022/09/08 08:58:44;;;;;;;;;3.67;2.33;;;;;20.86;100.00;100672.91;5038705;28;45928;-72
2022/09/08 09:01:22;;;;;;;;;3.33;3.00;;;;;20.95;100.00;100663.69;5045853;28;45993;-70
2022/09/08 09:03:50;;;;;;;;;1.33;1.33;;;;;20.98;100.00;100671.59;5052953;28;45517;-72
2022/09/08 09:06:42;;;;;;;;;7.67;2.00;;;;;20.99;100.00;100674.25;5026797;28;45484;-72
2022/09/08 09:09:20;;;;;;;;;8.00;4.00;;;;;21.07;100.00;100677.53;5063690;28;45531;-71
2022/09/08 09:12:05;;;;;;;;;5.00;3.67;;;;;21.12;100.00;100678.25;5064791;28;46669;-72
2022/09/08 09:14:49;;;;;;;;;3.33;2.33;;;;;21.12;100.00;100680.06;5031731;28;45445;-72
2022/09/08 09:17:23;;;;;;;;;4.00;3.00;;;;;21.07;100.00;100684.72;5057909;28;45588;-71
2022/09/08 09:20:00;;;;;;;;;4.33;3.00;;;;;21.03;100.00;100685.75;5062971;28;45600;-71
2022/09/08 09:22:36;;;;;;;;;1.00;1.00;;;;;21.06;100.00;100685.66;5058109;28;46702;-72
2022/09/08 09:25:38;;;;;;;;;3.00;3.00;;;;;21.09;100.00;100693.59;5065620;28;45963;-70
2022/09/08 09:28:10;;;;;;;;;6.00;3.00;;;;;21.12;100.00;100685.44;5039979;28;45403;-71
2022/09/08 09:31:03;;;;;;;;;6.33;3.00;;;;;21.11;100.00;100698.00;5052462;28;45614;-71
2022/09/08 09:33:39;;;;;;;;;6.67;3.00;;;;;21.08;100.00;100698.09;5064931;27;46544;-71
2022/09/08 09:36:32;;;;;;;;;8.33;4.00;;;;;21.10;100.00;100698.06;5059664;28;45568;-71
2022/09/08 09:39:32;;;;;;;;;2.33;2.33;;;;;21.16;100.00;100687.09;5067813;28;45499;-72
2022/09/08 09:42:07;;;;;;;;;5.33;3.00;;;;;21.28;100.00;100681.28;5068174;28;45776;-73
2022/09/08 09:44:54;;;;;;;;;5.00;3.00;;;;;21.39;100.00;100689.88;5053961;28;46206;-72
2022/09/08 09:47:38;;;;;;;;;5.00;3.33;;;;;21.47;100.00;100681.53;5039830;28;45523;-71
2022/09/08 09:50:43;;;;;;;;;3.67;2.67;;;;;21.61;100.00;100684.59;5062554;28;45406;-71
2022/09/08 09:53:14;;;;;;;;;5.00;3.00;;;;;21.75;100.00;100678.72;5046497;28;45442;-71
2022/09/08 09:56:17;;;;;;;;;3.33;3.33;;;;;21.87;100.00;100674.66;5052335;28;45714;-71
2022/09/08 09:59:08;;;;;;;;;1.67;1.67;;;;;21.91;100.00;100671.81;5071054;28;45966;-70
2022/09/08 10:02:05;;;;;;;;;3.67;3.00;;;;;21.99;100.00;100668.81;5062444;28;45540;-71
2022/09/08 10:04:50;;;;;;;;;9.33;2.33;;;;;22.07;100.00;100665.84;5065604;28;45450;-72
2022/09/08 10:07:24;;;;;;;;;5.67;3.67;;;;;22.14;100.00;100667.38;5043989;28;47446;-71
2022/09/08 10:10:24;;;;;;;;;5.00;2.00;;;;;22.20;100.00;100672.50;5067035;27;46556;-71
2022/09/08 10:13:17;;;;;;;;;5.00;3.00;;;;;22.16;100.00;100661.03;5047362;28;45732;-72
2022/09/08 10:16:03;;;;;;;;;5.00;2.00;;;;;22.11;100.00;100667.53;5161442;22;45807;-72
2022/09/08 10:18:53;;;;;;;;;6.33;2.00;;;;;22.04;100.00;100661.44;5047826;28;46622;-70
2022/09/08 10:21:37;;;;;;;;;4.00;2.00;;;;;22.05;100.00;100655.16;5051060;28;45649;-71
2022/09/08 10:24:33;;;;;;;;;6.00;2.00;;;;;22.06;100.00;100654.22;5051497;28;45873;-71
2022/09/08 10:27:32;;;;;;;;;2.00;2.00;;;;;22.08;100.00;100648.75;5047341;28;45487;-71
2022/09/08 10:30:09;;;;;;;;;2.00;2.00;;;;;22.08;100.00;100646.94;5050556;28;46477;-71
2022/09/08 10:32:53;;;;;;;;;4.67;1.33;;;;;22.16;100.00;100647.56;5045422;28;45577;-71
2022/09/08 10:35:30;;;;;;;;;4.00;2.33;;;;;22.19;100.00;100647.44;5051688;28;45584;-72
2022/09/08 10:38:23;;;;;;;;;9.33;2.67;;;;;22.22;100.00;100644.63;5049573;28;45413;-72
2022/09/08 10:40:48;;;;;;;;;5.33;1.00;;;;;22.28;100.00;100637.25;5051686;28;45629;-70
2022/09/08 10:43:38;;;;;;;;;3.33;1.67;;;;;22.31;100.00;100642.50;5045318;28;46748;-69
2022/09/08 10:46:32;;;;;;;;;4.67;2.33;;;;;22.36;100.00;100644.06;5048323;28;45452;-70
2022/09/08 10:49:13;;;;;;;;;3.00;1.00;;;;;22.44;100.00;100646.44;5014848;28;45345;-70
2022/09/08 10:51:38;;;;;;;;;2.33;1.00;;;;;22.43;100.00;100645.56;5049611;28;46313;-71
2022/09/08 10:54:22;;;;;;;;;4.33;2.00;;;;;22.40;100.00;100648.38;5048893;28;45442;-69
2022/09/08 10:56:48;;;;;;;;;3.00;1.00;;;;;22.38;100.00;100654.78;5052433;28;45636;-70
2022/09/08 10:59:17;;;;;;;;;2.00;2.00;;;;;22.33;100.00;100638.81;5052440;28;45598;-70
2022/09/08 11:02:07;;;;;;;;;2.00;2.00;;;;;22.29;100.00;100639.00;5053940;28;46724;-69
2022/09/08 11:05:00;;;;;;;;;4.00;2.00;;;;;22.32;100.00;100642.44;5049430;28;45515;-70
2022/09/08 11:07:40;;;;;;;;;2.67;1.33;;;;;22.34;100.00;100645.94;5050577;28;45542;-69
2022/09/08 11:10:20;;;;;;;;;3.33;1.00;;;;;22.36;100.00;100643.19;5049955;28;45882;-72
2022/09/08 11:12:54;;;;;;;;;4.33;2.00;;;;;22.40;100.00;100634.94;5050952;28;46829;-71
2022/09/08 11:15:37;;;;;;;;;2.00;2.00;;;;;22.49;100.00;100633.69;5038939;28;45525;-68
2022/09/08 11:18:35;;;;;;;;;2.00;2.00;;;;;22.67;100.00;100630.22;5034790;28;45466;-70
2022/09/08 11:21:04;;;;;;;;;6.00;2.00;;;;;22.92;100.00;100629.22;5026360;28;45872;-71
2022/09/08 11:24:06;;;;;;;;;3.00;2.00;;;;;23.08;100.00;100627.59;5033097;28;47621;-72
2022/09/08 11:26:45;;;;;;;;;3.67;3.00;;;;;23.19;100.00;100627.13;5042199;28;45533;-71
2022/09/08 11:29:15;;;;;;;;;2.00;1.00;;;;;23.24;100.00;100625.97;5023680;28;45417;-69
2022/09/08 11:31:52;;;;;;;;;4.00;1.00;;;;;23.24;100.00;100633.19;5046948;28;46105;-70
2022/09/08 11:34:31;;;;;;;;;5.67;2.00;;;;;23.31;100.00;100626.56;5050479;28;46544;-70
2022/09/08 11:37:15;;;;;;;;;1.00;1.00;;;;;23.46;99.06;100625.00;5032593;28;45546;-72
2022/09/08 11:40:12;;;;;;;;;1.67;0.67;;;;;23.60;97.40;100652.19;5048770;28;45831;-72
2022/09/08 11:42:59;;;;;;;;;1.67;1.00;;;;;23.64;94.43;100628.69;5041726;28;45441;-70
2022/09/08 11:45:50;;;;;;;;;3.00;2.67;;;;;23.62;94.66;100623.34;5026967;28;47191;-72
2022/09/08 11:48:15;;;;;;;;;3.00;2.00;;;;;23.60;93.87;100622.56;5043202;28;45451;-72
2022/09/08 11:50:56;;;;;;;;;1.00;1.00;;;;;23.57;94.55;100614.59;5043477;28;45481;-72
2022/09/08 11:53:38;;;;;;;;;4.00;1.00;;;;;23.70;92.79;100617.63;5031802;28;45448;-72